Terra Ceia Island, Florida
Current Conditions -  °F | °C
As of 7:22 AM on Monday 24 Nov 2014 (Local Time) from KSRQ Reporting Station
Haze Haze  
Wind Chill: 72°   Ceiling: 200
Heat Index: 72°   Visibility: 2.5mi
Dew Point: 72°   Wind: 15mph
Humidity: 100%   Direction: 180°S
Pressure: 29.94"   Gusts: NA
Location:  27.5722°N, 82.5932°W
Report Text: KSRQ 241222Z 18013KT 2 1/2SM BR OVC002 22/22 A2994 RMK AO2 T02220222
Loading
Personal Weather Stations






























Interactive Weather Map New forecast layout! Learn more

10-Day Weather Forecast

Advertisements
Track Severe Weather on mobile